Terminal Aerodrome Forecast
Issued by NWS San Angelo, TX

Current Version | Previous Version | Text Only | Print | Product List | Glossary On
Versions: 1 2 3 4 5 6 7 8 9 10 11 12 13 14 15 16
897
FTUS44 KSJT 141349 AAB
TAFSJT
TAF AMD
KSJT 141349Z 1414/1512 20012KT P6SM SCT015 BKN250
      TEMPO 1414/1415 20014G21KT BKN015
     FM141800 25011KT P6SM SCT060 BKN250
     FM142200 34009KT P6SM SCT250
     FM150300 01004KT P6SM SCT250=

USA.gov is the U.S. government's official web portal to all federal, state and local government web resources and services.